createdAt,value
2022-12-03T00:01:06.808Z,62.70
2022-12-03T00:03:36.987Z,64.70
2022-12-03T00:06:05.860Z,57.20
2022-12-03T00:08:35.541Z,60.10
2022-12-03T00:11:04.334Z,60.10
2022-12-03T00:13:32.819Z,52.30
2022-12-03T00:16:02.097Z,54.60
2022-12-03T00:18:31.453Z,65.00
2022-12-03T00:21:00.094Z,62.30
2022-12-03T00:23:28.851Z,56.10
2022-12-03T00:25:57.933Z,49.40
2022-12-03T00:28:26.593Z,48.30
2022-12-03T00:30:56.215Z,57.90
2022-12-03T00:33:26.137Z,57.60
2022-12-03T00:35:54.697Z,66.30
2022-12-03T00:38:23.857Z,62.40
2022-12-03T00:40:54.198Z,43.60
2022-12-03T00:45:51.672Z,66.70
2022-12-03T00:48:20.535Z,58.80
2022-12-03T00:50:49.099Z,57.20
2022-12-03T00:53:17.973Z,56.20
2022-12-03T00:55:47.352Z,61.90
2022-12-03T00:58:15.956Z,45.60
2022-12-03T01:00:45.040Z,58.90
2022-12-03T01:03:14.167Z,65.60
2022-12-03T01:05:42.865Z,61.40
2022-12-03T01:08:12.135Z,62.60
2022-12-03T01:10:42.142Z,62.40
2022-12-03T01:13:10.886Z,65.70
2022-12-03T01:15:39.790Z,59.70
2022-12-03T01:18:09.831Z,56.70
2022-12-03T01:20:39.043Z,58.30
2022-12-03T01:23:08.388Z,59.30
2022-12-03T01:25:37.490Z,62.50
2022-12-03T01:28:05.975Z,64.60
2022-12-03T01:30:55.189Z,64.30
2022-12-03T01:33:24.124Z,61.20
2022-12-03T01:35:53.072Z,70.10
2022-12-03T01:38:21.835Z,64.80
2022-12-03T01:40:51.105Z,72.40
2022-12-03T01:43:19.771Z,66.40
2022-12-03T01:45:48.871Z,73.30
2022-12-03T01:48:18.048Z,48.00
2022-12-03T01:50:47.658Z,65.00
2022-12-03T01:53:19.541Z,64.80
2022-12-03T01:55:48.976Z,62.20
2022-12-03T01:58:24.864Z,52.40
2022-12-03T02:00:53.756Z,75.90
2022-12-03T02:03:25.244Z,70.50
2022-12-03T02:05:54.202Z,71.10
2022-12-03T02:08:35.445Z,72.20
2022-12-03T02:11:26.291Z,75.20
2022-12-03T02:14:02.178Z,75.30
2022-12-03T02:16:31.543Z,67.80
2022-12-03T02:19:01.174Z,67.50
2022-12-03T02:21:54.016Z,71.90
2022-12-03T02:24:44.438Z,65.40
2022-12-03T02:29:42.647Z,67.20
2022-12-03T02:32:11.586Z,65.90
2022-12-03T02:34:45.958Z,68.20
2022-12-03T02:37:19.987Z,71.00
2022-12-03T02:39:53.628Z,69.50
2022-12-03T02:42:38.311Z,68.90
2022-12-03T02:45:10.660Z,71.00
2022-12-03T02:47:44.805Z,63.30
2022-12-03T02:50:18.279Z,70.20
2022-12-03T02:52:48.418Z,68.30
2022-12-03T02:55:18.878Z,61.70
2022-12-03T02:57:50.524Z,61.50
2022-12-03T03:00:19.793Z,62.20
2022-12-03T03:02:51.188Z,64.00
2022-12-03T03:05:23.938Z,67.00
2022-12-03T03:07:53.144Z,68.20
2022-12-03T03:10:23.748Z,72.40
2022-12-03T03:12:55.589Z,66.40
2022-12-03T03:15:25.558Z,67.40
2022-12-03T03:17:54.172Z,66.90
2022-12-03T03:20:23.054Z,66.20
2022-12-03T03:22:52.066Z,66.10
2022-12-03T03:25:25.391Z,68.50
2022-12-03T03:27:54.482Z,71.90
2022-12-03T03:30:23.302Z,68.90
2022-12-03T03:32:51.987Z,76.30
2022-12-03T03:35:21.146Z,71.50
2022-12-03T03:37:49.897Z,49.50
2022-12-03T03:40:19.042Z,72.30
2022-12-03T03:42:48.887Z,73.40
2022-12-03T03:45:22.662Z,76.50
2022-12-03T03:47:55.559Z,71.40
2022-12-03T03:50:28.713Z,79.00
2022-12-03T03:53:00.346Z,71.30
2022-12-03T03:55:30.424Z,72.80
2022-12-03T03:57:59.400Z,66.80
2022-12-03T04:00:28.443Z,72.70
2022-12-03T04:02:57.213Z,73.80
2022-12-03T04:05:28.005Z,65.60
2022-12-03T04:10:44.288Z,72.00
2022-12-03T04:13:14.463Z,78.20
2022-12-03T04:15:43.122Z,79.60
2022-12-03T04:18:30.508Z,81.80
2022-12-03T04:21:19.240Z,73.70
2022-12-03T04:23:47.927Z,75.90
2022-12-03T04:26:36.049Z,74.60
2022-12-03T04:29:04.960Z,73.10
2022-12-03T04:31:52.611Z,75.80
2022-12-03T04:34:40.029Z,74.10
2022-12-03T04:37:09.284Z,84.70
2022-12-03T04:39:37.943Z,73.70
2022-12-03T04:42:07.511Z,76.40
2022-12-03T04:44:36.726Z,83.60
2022-12-03T04:47:08.987Z,78.40
2022-12-03T04:49:41.205Z,82.90
2022-12-03T04:52:12.294Z,78.20
2022-12-03T04:54:42.125Z,75.30
2022-12-03T04:57:12.234Z,76.30
2022-12-03T04:59:41.433Z,72.60
2022-12-03T05:02:10.622Z,75.60
2022-12-03T05:04:39.661Z,63.30
2022-12-03T05:07:08.350Z,79.90
2022-12-03T05:09:37.446Z,84.60
2022-12-03T05:12:06.210Z,82.30
2022-12-03T05:14:35.605Z,91.80
2022-12-03T05:17:04.690Z,78.70
2022-12-03T05:19:52.192Z,76.50
2022-12-03T05:22:21.047Z,75.20
2022-12-03T05:24:49.644Z,78.90
2022-12-03T05:27:23.451Z,74.30
2022-12-03T05:29:54.446Z,73.50
2022-12-03T05:32:23.158Z,84.20
2022-12-03T05:34:52.023Z,83.50
2022-12-03T05:37:21.824Z,72.90
2022-12-03T05:39:50.556Z,86.80
2022-12-03T05:42:37.845Z,85.80
2022-12-03T05:45:07.665Z,82.30
2022-12-03T05:47:36.262Z,80.00
2022-12-03T05:50:05.525Z,86.60
2022-12-03T05:52:34.738Z,83.60
2022-12-03T05:55:03.686Z,85.90
2022-12-03T05:57:32.267Z,77.00
2022-12-03T06:00:01.424Z,88.50
2022-12-03T06:02:30.339Z,84.30
2022-12-03T06:04:59.370Z,81.90
2022-12-03T06:07:28.544Z,81.90
2022-12-03T06:09:57.141Z,86.20
2022-12-03T06:12:25.700Z,91.60
2022-12-03T06:14:55.662Z,95.30
2022-12-03T06:17:24.477Z,86.10
2022-12-03T06:19:53.067Z,98.30
2022-12-03T06:22:22.134Z,92.80
2022-12-03T06:24:50.915Z,92.30
2022-12-03T06:27:19.693Z,101.90
2022-12-03T06:29:49.051Z,85.10
2022-12-03T06:32:17.696Z,95.30
2022-12-03T06:34:47.491Z,88.70
2022-12-03T06:37:16.853Z,90.30
2022-12-03T06:39:45.593Z,82.20
2022-12-03T06:42:14.136Z,95.20
2022-12-03T06:44:43.246Z,93.30
2022-12-03T06:47:11.842Z,97.10
2022-12-03T06:49:40.487Z,98.00
2022-12-03T06:52:09.600Z,95.10
2022-12-03T06:54:38.179Z,63.20
2022-12-03T06:57:06.893Z,100.80
2022-12-03T06:59:37.982Z,106.40
2022-12-03T07:02:07.008Z,101.60
2022-12-03T07:04:35.651Z,119.10
2022-12-03T07:07:05.025Z,101.70
2022-12-03T07:09:33.580Z,116.20
2022-12-03T07:12:02.199Z,102.90
2022-12-03T07:14:31.390Z,99.40
2022-12-03T07:17:00.028Z,75.80
2022-12-03T07:19:32.522Z,92.70
2022-12-03T07:22:03.699Z,101.60
2022-12-03T07:30:18.132Z,90.40
2022-12-03T07:48:29.698Z,92.80
2022-12-03T07:51:01.203Z,77.30
2022-12-03T07:53:30.472Z,95.70
2022-12-03T07:55:59.071Z,79.20
2022-12-03T07:58:28.291Z,119.70
2022-12-03T08:00:57.855Z,114.70
2022-12-03T08:03:26.535Z,114.10
2022-12-03T08:05:55.594Z,117.30
2022-12-03T08:08:24.815Z,122.40
2022-12-03T08:10:53.647Z,127.70
2022-12-03T08:13:22.456Z,116.30
2022-12-03T08:15:52.359Z,105.50
2022-12-03T08:18:22.412Z,107.50
2022-12-03T08:20:52.304Z,113.20
2022-12-03T08:23:23.322Z,79.20
2022-12-03T08:25:53.352Z,104.50
2022-12-03T08:28:24.652Z,98.20
2022-12-03T08:31:19.928Z,110.00
2022-12-03T08:33:51.369Z,122.50
2022-12-03T08:36:27.167Z,107.20
2022-12-03T08:39:15.159Z,111.10
2022-12-03T08:42:05.945Z,115.00
2022-12-03T08:44:41.989Z,134.00
2022-12-03T08:47:16.869Z,122.40
2022-12-03T08:50:13.115Z,114.00
2022-12-03T08:52:42.461Z,110.90
2022-12-03T08:55:39.266Z,116.50
2022-12-03T08:58:39.855Z,122.60
2022-12-03T09:01:11.723Z,110.50
2022-12-03T09:03:49.565Z,132.10
2022-12-03T09:06:18.896Z,117.10
2022-12-03T09:08:48.098Z,105.40
2022-12-03T09:11:16.767Z,124.30
2022-12-03T09:13:45.409Z,116.30
2022-12-03T09:16:14.423Z,121.70
2022-12-03T09:18:46.493Z,116.50
2022-12-03T09:21:16.486Z,116.10
2022-12-03T09:26:14.243Z,121.00
2022-12-03T09:28:43.174Z,116.40
2022-12-03T09:31:12.036Z,121.30
2022-12-03T09:33:40.728Z,133.00
2022-12-03T09:36:09.655Z,121.70
2022-12-03T09:38:41.945Z,119.40
2022-12-03T09:41:15.194Z,109.70
2022-12-03T09:44:03.306Z,119.10
2022-12-03T09:46:35.958Z,111.50
2022-12-03T09:49:12.314Z,114.40
2022-12-03T09:51:45.948Z,91.10
2022-12-03T09:54:24.790Z,123.70
2022-12-03T09:56:55.384Z,129.10
2022-12-03T09:59:28.218Z,125.20
2022-12-03T10:01:58.202Z,146.80
2022-12-03T10:04:29.158Z,115.10
2022-12-03T10:06:59.339Z,112.90
2022-12-03T10:09:29.691Z,107.60
2022-12-03T10:12:00.365Z,108.50
2022-12-03T10:14:30.038Z,113.80
2022-12-03T10:16:59.003Z,123.70
2022-12-03T10:19:33.243Z,128.60
2022-12-03T10:22:02.110Z,118.30
2022-12-03T10:24:35.995Z,126.20
2022-12-03T10:27:29.758Z,117.70
2022-12-03T10:30:01.668Z,122.10
2022-12-03T10:32:45.999Z,126.20
2022-12-03T10:35:21.551Z,117.70
2022-12-03T10:38:01.022Z,112.40
2022-12-03T10:40:31.607Z,110.70
2022-12-03T10:43:18.981Z,106.70
2022-12-03T10:45:50.076Z,140.90
2022-12-03T10:48:20.442Z,153.90
2022-12-03T10:53:28.787Z,135.10
2022-12-03T10:56:00.174Z,125.40
2022-12-03T10:58:31.617Z,125.00
2022-12-03T11:01:03.995Z,114.90
2022-12-03T11:03:37.026Z,116.00
2022-12-03T11:06:06.125Z,115.00
2022-12-03T11:08:37.739Z,143.40
2022-12-03T11:11:19.211Z,159.70
2022-12-03T11:13:54.857Z,134.60
2022-12-03T11:16:42.237Z,152.60
2022-12-03T11:19:38.134Z,137.40
2022-12-03T11:22:07.020Z,132.90
2022-12-03T11:24:41.618Z,127.40
2022-12-03T11:27:10.773Z,127.80
2022-12-03T11:30:00.392Z,133.00
2022-12-03T11:32:38.828Z,142.00
2022-12-03T11:35:29.101Z,143.90
2022-12-03T11:38:36.502Z,128.90
2022-12-03T11:41:11.744Z,142.20
2022-12-03T11:43:52.872Z,123.70
2022-12-03T11:46:25.492Z,131.50
2022-12-03T11:48:56.866Z,128.60
2022-12-03T11:51:28.829Z,120.10
2022-12-03T11:54:01.025Z,135.50
2022-12-03T11:56:33.453Z,133.00
2022-12-03T11:59:05.084Z,132.90
2022-12-03T12:01:44.186Z,134.20
2022-12-03T12:04:35.911Z,131.10
2022-12-03T12:07:04.834Z,131.80
2022-12-03T12:10:06.151Z,134.80
2022-12-03T12:12:54.289Z,128.80
2022-12-03T12:15:34.015Z,123.00
2022-12-03T12:18:41.879Z,133.70
2022-12-03T12:21:48.029Z,116.00
2022-12-03T12:24:51.805Z,122.00
2022-12-03T12:27:23.556Z,118.00
2022-12-03T12:30:03.469Z,121.80
2022-12-03T12:33:10.436Z,125.80
2022-12-03T12:35:46.766Z,170.70
2022-12-03T12:38:35.903Z,117.30
2022-12-03T12:41:08.401Z,118.10
2022-12-03T12:43:39.143Z,134.60
2022-12-03T12:49:15.273Z,128.80
2022-12-03T12:51:46.096Z,137.80
2022-12-03T12:54:17.000Z,135.40
2022-12-03T12:56:50.415Z,143.30
2022-12-03T12:59:24.819Z,137.60
2022-12-03T13:01:54.042Z,141.70
2022-12-03T13:04:24.235Z,134.10
2022-12-03T13:06:54.366Z,136.80
2022-12-03T13:09:28.075Z,136.00
2022-12-03T13:12:00.395Z,139.10
2022-12-03T13:14:36.956Z,147.40
2022-12-03T13:17:19.145Z,152.70
2022-12-03T13:19:53.912Z,140.50
2022-12-03T13:22:28.227Z,145.00
2022-12-03T13:24:59.034Z,156.50
2022-12-03T13:27:30.028Z,140.70
2022-12-03T13:30:08.741Z,145.20
2022-12-03T13:32:38.102Z,151.50
2022-12-03T13:35:17.773Z,137.70
2022-12-03T13:37:46.740Z,159.30
2022-12-03T13:40:26.077Z,149.10
2022-12-03T13:42:55.570Z,136.50
2022-12-03T13:45:31.296Z,149.60
2022-12-03T13:48:03.667Z,143.70
2022-12-03T13:50:46.611Z,144.60
2022-12-03T13:53:40.477Z,136.60
2022-12-03T13:56:30.576Z,144.10
2022-12-03T14:01:30.960Z,163.90
2022-12-03T14:04:00.944Z,166.50
2022-12-03T14:06:29.439Z,165.20
2022-12-03T14:08:58.364Z,152.70
2022-12-03T14:11:48.691Z,182.60
2022-12-03T14:14:19.499Z,208.70
2022-12-03T14:16:48.688Z,180.40
2022-12-03T14:19:17.265Z,187.30
2022-12-03T14:21:47.024Z,180.70
2022-12-03T14:24:16.131Z,163.40
2022-12-03T14:26:44.670Z,143.50
2022-12-03T14:29:13.530Z,185.50
2022-12-03T14:31:42.331Z,160.80
2022-12-03T14:34:10.985Z,158.10
2022-12-03T14:36:40.770Z,154.80
2022-12-03T14:39:09.556Z,167.00
2022-12-03T14:41:56.905Z,164.20
2022-12-03T14:44:26.685Z,151.50
2022-12-03T14:46:57.340Z,146.20
2022-12-03T14:49:27.018Z,156.60
2022-12-03T14:51:55.672Z,156.10
2022-12-03T14:54:24.288Z,140.20
2022-12-03T14:56:53.727Z,147.30
2022-12-03T14:59:27.386Z,162.40
2022-12-03T15:01:57.912Z,172.10
2022-12-03T15:04:26.921Z,180.50
2022-12-03T15:06:55.502Z,186.50
2022-12-03T15:09:24.643Z,167.80
2022-12-03T15:11:53.303Z,153.70
2022-12-03T15:14:23.835Z,165.60
2022-12-03T15:16:53.930Z,164.30
2022-12-03T15:19:22.764Z,163.90
2022-12-03T15:21:51.299Z,167.20
2022-12-03T15:24:20.561Z,155.70
2022-12-03T15:26:49.984Z,135.30
2022-12-03T15:29:19.326Z,105.70
2022-12-03T15:31:48.813Z,176.80
2022-12-03T15:34:22.574Z,183.30
2022-12-03T15:36:52.398Z,166.90
2022-12-03T15:39:21.028Z,141.90
2022-12-03T15:41:49.835Z,170.40
2022-12-03T15:44:19.170Z,179.70
2022-12-03T15:46:48.063Z,192.90
2022-12-03T15:49:16.660Z,205.00
2022-12-03T15:51:45.842Z,204.80
2022-12-03T15:54:14.907Z,188.90
2022-12-03T15:56:43.413Z,171.00
2022-12-03T15:59:13.691Z,188.10
2022-12-03T16:04:10.965Z,174.80
2022-12-03T16:06:40.278Z,183.60
2022-12-03T16:09:09.279Z,185.60
2022-12-03T16:11:37.879Z,179.30
2022-12-03T16:14:07.298Z,185.20
2022-12-03T16:16:36.502Z,205.60
2022-12-03T16:19:05.185Z,193.70
2022-12-03T16:21:35.640Z,174.60
2022-12-03T16:24:05.236Z,170.40
2022-12-03T16:26:33.883Z,155.00
2022-12-03T16:29:03.927Z,160.70
2022-12-03T16:31:33.846Z,160.80
2022-12-03T16:34:02.650Z,150.50
2022-12-03T16:36:32.253Z,146.90
2022-12-03T16:39:01.507Z,150.30
2022-12-03T16:41:30.288Z,145.80
2022-12-03T16:44:02.508Z,145.50
2022-12-03T16:46:31.468Z,150.10
2022-12-03T16:49:00.638Z,150.60
2022-12-03T16:51:30.749Z,150.70
2022-12-03T16:53:59.774Z,157.00
2022-12-03T16:56:28.507Z,168.70
2022-12-03T16:58:57.486Z,160.10
2022-12-03T17:01:26.187Z,169.20
2022-12-03T17:03:55.533Z,177.80
2022-12-03T17:06:24.657Z,165.30
2022-12-03T17:08:53.290Z,149.80
2022-12-03T17:11:22.042Z,170.70
2022-12-03T17:13:51.467Z,160.70
2022-12-03T17:16:20.210Z,161.60
2022-12-03T17:18:49.875Z,182.20
2022-12-03T17:21:19.645Z,189.70
2022-12-03T17:23:51.213Z,180.20
2022-12-03T17:26:20.578Z,161.20
2022-12-03T17:28:49.099Z,120.50
2022-12-03T17:31:17.713Z,156.90
2022-12-03T17:33:47.131Z,151.60
2022-12-03T17:36:15.718Z,158.60
2022-12-03T17:38:44.329Z,163.30
2022-12-03T17:41:13.931Z,170.30
2022-12-03T17:43:42.603Z,161.90
2022-12-03T17:46:11.905Z,175.30
2022-12-03T17:48:43.214Z,179.50
2022-12-03T17:51:12.053Z,211.90
2022-12-03T17:53:40.718Z,203.30
2022-12-03T17:56:10.177Z,218.60
2022-12-03T17:58:38.920Z,208.30
2022-12-03T18:01:10.928Z,160.60
2022-12-03T18:03:51.404Z,176.50
2022-12-03T18:06:41.886Z,167.40
2022-12-03T18:09:37.054Z,161.30
2022-12-03T18:12:36.289Z,166.90
2022-12-03T18:15:27.880Z,169.00
2022-12-03T18:18:30.592Z,195.70
2022-12-03T18:21:21.766Z,196.70
2022-12-03T18:24:26.009Z,187.70
2022-12-03T18:27:12.799Z,177.60
2022-12-03T18:30:05.825Z,184.90
2022-12-03T18:32:53.225Z,180.40
2022-12-03T18:35:53.984Z,168.80
2022-12-03T18:38:51.176Z,194.80
2022-12-03T18:41:46.858Z,190.30
2022-12-03T18:44:15.884Z,174.90
2022-12-03T18:46:53.518Z,153.00
2022-12-03T18:49:23.666Z,221.80
2022-12-03T18:51:58.872Z,193.30
2022-12-03T18:54:28.637Z,201.60
2022-12-03T18:56:57.592Z,192.20
2022-12-03T18:59:26.184Z,179.40
2022-12-03T19:01:55.104Z,174.30
2022-12-03T19:04:24.736Z,168.30
2022-12-03T19:06:53.358Z,144.20
2022-12-03T19:09:22.375Z,173.20
2022-12-03T19:11:51.524Z,165.70
2022-12-03T19:14:20.068Z,172.30
2022-12-03T19:16:50.592Z,176.20
2022-12-03T19:19:19.555Z,170.80
2022-12-03T19:21:48.145Z,169.80
2022-12-03T19:24:26.553Z,176.00
2022-12-03T19:26:55.797Z,175.80
2022-12-03T19:29:25.284Z,162.10
2022-12-03T19:31:53.962Z,117.80
2022-12-03T19:34:22.778Z,165.10
2022-12-03T19:36:51.868Z,164.10
2022-12-03T19:39:20.653Z,165.80
2022-12-03T19:41:49.508Z,157.30
2022-12-03T19:44:19.734Z,156.50
2022-12-03T19:46:51.526Z,146.60
2022-12-03T19:49:21.962Z,148.00
2022-12-03T19:51:50.877Z,149.40
2022-12-03T19:54:19.841Z,163.60
2022-12-03T19:56:50.163Z,150.90
2022-12-03T19:59:19.140Z,150.30
2022-12-03T20:01:48.681Z,151.50
2022-12-03T20:04:18.380Z,154.90
2022-12-03T20:06:47.867Z,158.90
2022-12-03T20:09:18.221Z,119.30
2022-12-03T20:11:50.687Z,163.80
2022-12-03T20:14:20.201Z,175.90
2022-12-03T20:16:49.668Z,179.30
2022-12-03T20:19:18.529Z,158.40
2022-12-03T20:21:47.564Z,153.00
2022-12-03T20:24:18.317Z,151.70
2022-12-03T20:26:47.515Z,147.20
2022-12-03T20:29:16.145Z,158.40
2022-12-03T20:31:44.928Z,148.50
2022-12-03T20:34:14.141Z,163.40
2022-12-03T20:36:44.539Z,169.60
2022-12-03T20:39:13.421Z,164.70
2022-12-03T20:41:42.152Z,159.90
2022-12-03T20:44:10.788Z,141.60
2022-12-03T20:46:39.752Z,157.30
2022-12-03T20:49:08.785Z,154.40
2022-12-03T20:51:37.342Z,99.40
2022-12-03T20:54:06.108Z,151.70
2022-12-03T20:56:39.823Z,162.20
2022-12-03T20:59:12.854Z,147.80
2022-12-03T21:01:43.035Z,148.10
2022-12-03T21:04:18.413Z,147.90
2022-12-03T21:06:47.245Z,160.30
2022-12-03T21:09:16.561Z,153.70
2022-12-03T21:11:45.437Z,147.50
2022-12-03T21:14:14.364Z,145.50
2022-12-03T21:17:07.270Z,154.60
2022-12-03T21:19:36.056Z,144.30
2022-12-03T21:22:06.128Z,147.10
2022-12-03T21:24:34.957Z,147.80
2022-12-03T21:27:04.488Z,144.40
2022-12-03T21:29:34.686Z,138.30
2022-12-03T21:32:03.261Z,147.80
2022-12-03T21:34:36.116Z,158.60
2022-12-03T21:37:05.930Z,162.70
2022-12-03T21:39:34.688Z,159.70
2022-12-03T21:42:18.714Z,159.00
2022-12-03T21:44:53.135Z,149.70
2022-12-03T21:47:22.347Z,146.80
2022-12-03T21:49:50.988Z,151.00
2022-12-03T21:52:20.283Z,139.90
2022-12-03T21:54:51.984Z,148.40
2022-12-03T21:57:21.855Z,149.90
2022-12-03T21:59:50.453Z,147.70
2022-12-03T22:02:19.154Z,154.50
2022-12-03T22:04:52.028Z,160.40
2022-12-03T22:07:20.576Z,150.60
2022-12-03T22:09:49.329Z,154.90
2022-12-03T22:12:20.333Z,145.90
2022-12-03T22:14:48.881Z,158.40
2022-12-03T22:17:17.853Z,152.40
2022-12-03T22:19:46.567Z,143.50
2022-12-03T22:22:15.196Z,152.60
2022-12-03T22:24:46.240Z,156.90
2022-12-03T22:27:15.632Z,172.80
2022-12-03T22:29:44.224Z,160.50
2022-12-03T22:32:13.170Z,156.40
2022-12-03T22:34:43.132Z,152.10
2022-12-03T22:39:40.208Z,153.50
2022-12-03T22:42:09.090Z,144.90
2022-12-03T22:44:37.711Z,159.30
2022-12-03T22:47:06.827Z,117.60
2022-12-03T22:49:35.591Z,162.40
2022-12-03T22:52:04.241Z,162.80
2022-12-03T22:54:33.268Z,161.60
2022-12-03T22:57:02.316Z,160.70
2022-12-03T22:59:31.062Z,158.40
2022-12-03T23:02:00.259Z,125.80
2022-12-03T23:04:29.254Z,155.00
2022-12-03T23:06:57.802Z,152.90
2022-12-03T23:09:27.057Z,139.70
2022-12-03T23:11:56.202Z,152.10
2022-12-03T23:14:24.739Z,142.10
2022-12-03T23:16:54.036Z,150.80
2022-12-03T23:19:23.367Z,149.20
2022-12-03T23:21:51.875Z,160.80
2022-12-03T23:24:21.037Z,166.80
2022-12-03T23:26:50.094Z,157.30
2022-12-03T23:29:18.682Z,150.80
2022-12-03T23:31:48.239Z,152.20
2022-12-03T23:34:17.275Z,155.50
2022-12-03T23:36:45.918Z,146.60
2022-12-03T23:39:15.969Z,150.20
2022-12-03T23:41:45.053Z,155.20
2022-12-03T23:44:13.544Z,153.40
2022-12-03T23:46:43.018Z,161.50
2022-12-03T23:49:12.473Z,163.40
2022-12-03T23:51:41.018Z,167.20
2022-12-03T23:54:09.906Z,164.30
2022-12-03T23:56:40.303Z,161.30
2022-12-03T23:59:09.937Z,151.70
